sensor_id;sensor_type;location;lat;lon;timestamp;temperature;humidity
43641;DHT22;72791;52.546;13.570;2023-09-19T00:00:40;16.70;99.90
43641;DHT22;72791;52.546;13.570;2023-09-19T00:03:07;16.70;99.90
43641;DHT22;72791;52.546;13.570;2023-09-19T00:05:36;16.70;99.90
43641;DHT22;72791;52.546;13.570;2023-09-19T00:08:04;16.60;99.90
43641;DHT22;72791;52.546;13.570;2023-09-19T00:10:31;16.60;99.90
43641;DHT22;72791;52.546;13.570;2023-09-19T00:13:01;16.60;99.90
43641;DHT22;72791;52.546;13.570;2023-09-19T00:15:31;16.60;99.90
43641;DHT22;72791;52.546;13.570;2023-09-19T00:18:01;16.50;99.90
43641;DHT22;72791;52.546;13.570;2023-09-19T00:20:26;16.50;99.90
43641;DHT22;72791;52.546;13.570;2023-09-19T00:22:55;16.40;99.90
43641;DHT22;72791;52.546;13.570;2023-09-19T00:25:21;16.40;99.90
43641;DHT22;72791;52.546;13.570;2023-09-19T00:27:47;16.30;99.90
43641;DHT22;72791;52.546;13.570;2023-09-19T00:30:15;16.30;99.90
43641;DHT22;72791;52.546;13.570;2023-09-19T00:32:46;16.20;99.90
43641;DHT22;72791;52.546;13.570;2023-09-19T00:35:15;16.20;99.90
43641;DHT22;72791;52.546;13.570;2023-09-19T00:37:42;16.10;99.90
43641;DHT22;72791;52.546;13.570;2023-09-19T00:40:09;16.10;99.90
43641;DHT22;72791;52.546;13.570;2023-09-19T00:42:39;16.00;99.90
43641;DHT22;72791;52.546;13.570;2023-09-19T00:45:10;16.00;99.90
43641;DHT22;72791;52.546;13.570;2023-09-19T00:50:06;15.90;99.90
43641;DHT22;72791;52.546;13.570;2023-09-19T00:52:40;15.90;99.90
43641;DHT22;72791;52.546;13.570;2023-09-19T00:55:08;15.80;99.90
43641;DHT22;72791;52.546;13.570;2023-09-19T00:57:36;15.80;99.90
43641;DHT22;72791;52.546;13.570;2023-09-19T01:00:04;15.80;99.90
43641;DHT22;72791;52.546;13.570;2023-09-19T01:02:32;15.90;99.90
43641;DHT22;72791;52.546;13.570;2023-09-19T01:04:58;15.80;99.90
43641;DHT22;72791;52.546;13.570;2023-09-19T01:07:25;15.80;99.90
43641;DHT22;72791;52.546;13.570;2023-09-19T01:09:51;15.80;99.90
43641;DHT22;72791;52.546;13.570;2023-09-19T01:12:25;15.90;99.90
43641;DHT22;72791;52.546;13.570;2023-09-19T01:14:56;15.80;99.90
43641;DHT22;72791;52.546;13.570;2023-09-19T01:17:31;15.90;99.90
43641;DHT22;72791;52.546;13.570;2023-09-19T01:23:21;15.90;99.90
43641;DHT22;72791;52.546;13.570;2023-09-19T01:26:11;15.90;99.90
43641;DHT22;72791;52.546;13.570;2023-09-19T01:31:40;15.90;99.90
43641;DHT22;72791;52.546;13.570;2023-09-19T01:34:08;15.90;99.90
43641;DHT22;72791;52.546;13.570;2023-09-19T01:36:37;15.90;99.90
43641;DHT22;72791;52.546;13.570;2023-09-19T01:39:09;15.90;99.90
43641;DHT22;72791;52.546;13.570;2023-09-19T01:44:38;16.00;99.90
43641;DHT22;72791;52.546;13.570;2023-09-19T01:47:06;16.00;99.90
43641;DHT22;72791;52.546;13.570;2023-09-19T01:49:44;16.10;99.90
43641;DHT22;72791;52.546;13.570;2023-09-19T01:52:12;16.10;99.90
43641;DHT22;72791;52.546;13.570;2023-09-19T01:54:52;16.20;99.90
43641;DHT22;72791;52.546;13.570;2023-09-19T01:57:30;16.20;99.90
43641;DHT22;72791;52.546;13.570;2023-09-19T02:00:05;16.20;99.90
43641;DHT22;72791;52.546;13.570;2023-09-19T02:02:36;16.30;99.90
43641;DHT22;72791;52.546;13.570;2023-09-19T02:05:04;16.30;99.90
43641;DHT22;72791;52.546;13.570;2023-09-19T02:07:30;16.20;99.90
43641;DHT22;72791;52.546;13.570;2023-09-19T02:09:59;16.20;99.90
43641;DHT22;72791;52.546;13.570;2023-09-19T02:12:32;16.10;99.90
43641;DHT22;72791;52.546;13.570;2023-09-19T02:14:58;16.10;99.90
43641;DHT22;72791;52.546;13.570;2023-09-19T02:17:27;16.00;99.90
43641;DHT22;72791;52.546;13.570;2023-09-19T02:19:55;15.90;99.90
43641;DHT22;72791;52.546;13.570;2023-09-19T02:22:22;15.90;99.90
43641;DHT22;72791;52.546;13.570;2023-09-19T02:24:48;15.90;99.90
43641;DHT22;72791;52.546;13.570;2023-09-19T02:27:17;15.90;99.90
43641;DHT22;72791;52.546;13.570;2023-09-19T02:29:43;15.90;99.90
43641;DHT22;72791;52.546;13.570;2023-09-19T02:32:09;15.80;99.90
43641;DHT22;72791;52.546;13.570;2023-09-19T02:34:37;15.90;99.90
43641;DHT22;72791;52.546;13.570;2023-09-19T02:37:08;15.90;99.90
43641;DHT22;72791;52.546;13.570;2023-09-19T02:39:38;15.90;99.90
43641;DHT22;72791;52.546;13.570;2023-09-19T02:42:05;15.90;99.90
43641;DHT22;72791;52.546;13.570;2023-09-19T02:44:31;15.80;99.90
43641;DHT22;72791;52.546;13.570;2023-09-19T02:46:57;15.80;99.90
43641;DHT22;72791;52.546;13.570;2023-09-19T02:49:27;15.70;99.90
43641;DHT22;72791;52.546;13.570;2023-09-19T02:51:52;15.70;99.90
43641;DHT22;72791;52.546;13.570;2023-09-19T02:54:18;15.70;99.90
43641;DHT22;72791;52.546;13.570;2023-09-19T02:56:44;15.70;99.90
43641;DHT22;72791;52.546;13.570;2023-09-19T02:59:10;15.60;99.90
43641;DHT22;72791;52.546;13.570;2023-09-19T03:01:37;15.70;99.90
43641;DHT22;72791;52.546;13.570;2023-09-19T03:04:05;15.70;99.90
43641;DHT22;72791;52.546;13.570;2023-09-19T03:06:31;15.60;99.90
43641;DHT22;72791;52.546;13.570;2023-09-19T03:08:58;15.60;99.90
43641;DHT22;72791;52.546;13.570;2023-09-19T03:11:25;15.60;99.90
43641;DHT22;72791;52.546;13.570;2023-09-19T03:13:53;15.50;99.90
43641;DHT22;72791;52.546;13.570;2023-09-19T03:16:19;15.50;99.90
43641;DHT22;72791;52.546;13.570;2023-09-19T03:18:48;15.50;99.90
43641;DHT22;72791;52.546;13.570;2023-09-19T03:21:17;15.60;99.90
43641;DHT22;72791;52.546;13.570;2023-09-19T03:23:43;15.60;99.90
43641;DHT22;72791;52.546;13.570;2023-09-19T03:26:12;15.70;99.90
43641;DHT22;72791;52.546;13.570;2023-09-19T03:28:40;15.70;99.90
43641;DHT22;72791;52.546;13.570;2023-09-19T03:31:07;15.80;99.90
43641;DHT22;72791;52.546;13.570;2023-09-19T03:33:33;15.70;99.90
43641;DHT22;72791;52.546;13.570;2023-09-19T03:36:00;15.70;99.90
43641;DHT22;72791;52.546;13.570;2023-09-19T03:38:27;15.70;99.90
43641;DHT22;72791;52.546;13.570;2023-09-19T03:40:54;15.80;99.90
43641;DHT22;72791;52.546;13.570;2023-09-19T03:43:21;15.90;99.90
43641;DHT22;72791;52.546;13.570;2023-09-19T03:45:47;16.00;99.90
43641;DHT22;72791;52.546;13.570;2023-09-19T03:48:13;16.10;99.90
43641;DHT22;72791;52.546;13.570;2023-09-19T03:50:40;16.20;99.90
43641;DHT22;72791;52.546;13.570;2023-09-19T03:53:06;16.30;99.90
43641;DHT22;72791;52.546;13.570;2023-09-19T03:55:34;16.40;99.90
43641;DHT22;72791;52.546;13.570;2023-09-19T03:58:04;16.40;99.90
43641;DHT22;72791;52.546;13.570;2023-09-19T04:00:31;16.50;99.90
43641;DHT22;72791;52.546;13.570;2023-09-19T04:02:57;16.50;99.90
43641;DHT22;72791;52.546;13.570;2023-09-19T04:05:23;16.50;99.90
43641;DHT22;72791;52.546;13.570;2023-09-19T04:07:49;16.60;99.90
43641;DHT22;72791;52.546;13.570;2023-09-19T04:10:19;16.60;99.90
43641;DHT22;72791;52.546;13.570;2023-09-19T04:12:54;16.60;99.90
43641;DHT22;72791;52.546;13.570;2023-09-19T04:15:20;16.60;99.90
43641;DHT22;72791;52.546;13.570;2023-09-19T04:17:52;16.60;99.90
43641;DHT22;72791;52.546;13.570;2023-09-19T04:20:18;16.60;99.90
43641;DHT22;72791;52.546;13.570;2023-09-19T04:22:50;16.60;99.90
43641;DHT22;72791;52.546;13.570;2023-09-19T04:25:16;16.60;99.90
43641;DHT22;72791;52.546;13.570;2023-09-19T04:27:44;16.70;99.90
43641;DHT22;72791;52.546;13.570;2023-09-19T04:30:10;16.70;99.90
43641;DHT22;72791;52.546;13.570;2023-09-19T04:32:38;16.60;99.90
43641;DHT22;72791;52.546;13.570;2023-09-19T04:35:09;16.60;99.90
43641;DHT22;72791;52.546;13.570;2023-09-19T04:37:40;16.60;99.90
43641;DHT22;72791;52.546;13.570;2023-09-19T04:40:08;16.60;99.90
43641;DHT22;72791;52.546;13.570;2023-09-19T04:42:41;16.60;99.90
43641;DHT22;72791;52.546;13.570;2023-09-19T04:45:09;16.60;99.90
43641;DHT22;72791;52.546;13.570;2023-09-19T04:47:36;16.60;99.90
43641;DHT22;72791;52.546;13.570;2023-09-19T04:50:08;16.50;99.90
43641;DHT22;72791;52.546;13.570;2023-09-19T04:52:42;16.50;99.90
43641;DHT22;72791;52.546;13.570;2023-09-19T04:55:29;16.40;99.90
43641;DHT22;72791;52.546;13.570;2023-09-19T04:57:55;16.40;99.90
43641;DHT22;72791;52.546;13.570;2023-09-19T05:00:22;16.40;99.90
43641;DHT22;72791;52.546;13.570;2023-09-19T05:02:55;16.30;99.90
43641;DHT22;72791;52.546;13.570;2023-09-19T05:05:24;16.30;99.90
43641;DHT22;72791;52.546;13.570;2023-09-19T05:07:51;16.30;99.90
43641;DHT22;72791;52.546;13.570;2023-09-19T05:10:19;16.30;99.90
43641;DHT22;72791;52.546;13.570;2023-09-19T05:12:45;16.30;99.90
43641;DHT22;72791;52.546;13.570;2023-09-19T05:15:14;16.30;99.90
43641;DHT22;72791;52.546;13.570;2023-09-19T05:17:52;16.30;99.90
43641;DHT22;72791;52.546;13.570;2023-09-19T05:20:21;16.30;99.90
43641;DHT22;72791;52.546;13.570;2023-09-19T05:23:05;16.30;99.90
43641;DHT22;72791;52.546;13.570;2023-09-19T05:25:34;16.20;99.90
43641;DHT22;72791;52.546;13.570;2023-09-19T05:28:04;16.10;99.90
43641;DHT22;72791;52.546;13.570;2023-09-19T05:30:31;16.10;99.90
43641;DHT22;72791;52.546;13.570;2023-09-19T05:32:57;16.10;99.90
43641;DHT22;72791;52.546;13.570;2023-09-19T05:35:24;16.10;99.90
43641;DHT22;72791;52.546;13.570;2023-09-19T05:37:53;16.10;99.90
43641;DHT22;72791;52.546;13.570;2023-09-19T05:40:20;16.10;99.90
43641;DHT22;72791;52.546;13.570;2023-09-19T05:42:47;16.10;99.90
43641;DHT22;72791;52.546;13.570;2023-09-19T05:45:13;16.10;99.90
43641;DHT22;72791;52.546;13.570;2023-09-19T05:47:40;16.10;99.90
43641;DHT22;72791;52.546;13.570;2023-09-19T05:50:08;16.10;99.90
43641;DHT22;72791;52.546;13.570;2023-09-19T05:52:35;16.10;99.90
43641;DHT22;72791;52.546;13.570;2023-09-19T05:55:04;16.10;99.90
43641;DHT22;72791;52.546;13.570;2023-09-19T05:57:32;16.10;99.90
43641;DHT22;72791;52.546;13.570;2023-09-19T05:59:58;16.10;99.90
43641;DHT22;72791;52.546;13.570;2023-09-19T06:02:23;16.10;99.90
43641;DHT22;72791;52.546;13.570;2023-09-19T06:04:52;16.20;99.90
43641;DHT22;72791;52.546;13.570;2023-09-19T06:07:18;16.20;99.90
43641;DHT22;72791;52.546;13.570;2023-09-19T06:09:44;16.30;99.90
43641;DHT22;72791;52.546;13.570;2023-09-19T06:12:09;16.30;99.90
43641;DHT22;72791;52.546;13.570;2023-09-19T06:14:39;16.40;99.90
43641;DHT22;72791;52.546;13.570;2023-09-19T06:17:05;16.40;99.90
43641;DHT22;72791;52.546;13.570;2023-09-19T06:19:31;16.40;99.90
43641;DHT22;72791;52.546;13.570;2023-09-19T06:21:58;16.50;99.90
43641;DHT22;72791;52.546;13.570;2023-09-19T06:24:25;16.50;99.90
43641;DHT22;72791;52.546;13.570;2023-09-19T06:26:51;16.50;99.90
43641;DHT22;72791;52.546;13.570;2023-09-19T06:29:18;16.60;99.90
43641;DHT22;72791;52.546;13.570;2023-09-19T06:31:46;16.60;99.90
43641;DHT22;72791;52.546;13.570;2023-09-19T06:34:12;16.70;99.90
43641;DHT22;72791;52.546;13.570;2023-09-19T06:36:41;16.70;99.90
43641;DHT22;72791;52.546;13.570;2023-09-19T06:39:07;16.80;99.90
43641;DHT22;72791;52.546;13.570;2023-09-19T06:41:37;16.80;99.90
43641;DHT22;72791;52.546;13.570;2023-09-19T06:44:05;16.90;99.90
43641;DHT22;72791;52.546;13.570;2023-09-19T06:46:32;16.90;99.90
43641;DHT22;72791;52.546;13.570;2023-09-19T06:49:01;17.00;99.90
43641;DHT22;72791;52.546;13.570;2023-09-19T06:51:28;17.10;99.90
43641;DHT22;72791;52.546;13.570;2023-09-19T06:53:55;17.20;99.90
43641;DHT22;72791;52.546;13.570;2023-09-19T06:56:22;17.30;99.90
43641;DHT22;72791;52.546;13.570;2023-09-19T06:58:50;17.40;99.90
43641;DHT22;72791;52.546;13.570;2023-09-19T07:01:16;17.40;99.90
43641;DHT22;72791;52.546;13.570;2023-09-19T07:03:41;17.50;99.90
43641;DHT22;72791;52.546;13.570;2023-09-19T07:06:11;17.60;99.90
43641;DHT22;72791;52.546;13.570;2023-09-19T07:08:36;17.80;99.90
43641;DHT22;72791;52.546;13.570;2023-09-19T07:11:22;17.90;99.90
43641;DHT22;72791;52.546;13.570;2023-09-19T07:13:48;18.20;99.90
43641;DHT22;72791;52.546;13.570;2023-09-19T07:16:14;18.40;99.90
43641;DHT22;72791;52.546;13.570;2023-09-19T07:18:53;18.60;99.90
43641;DHT22;72791;52.546;13.570;2023-09-19T07:21:22;18.90;99.90
43641;DHT22;72791;52.546;13.570;2023-09-19T07:23:48;19.10;99.90
43641;DHT22;72791;52.546;13.570;2023-09-19T07:26:15;19.20;99.90
43641;DHT22;72791;52.546;13.570;2023-09-19T07:28:41;19.30;99.90
43641;DHT22;72791;52.546;13.570;2023-09-19T07:31:08;19.30;99.90
43641;DHT22;72791;52.546;13.570;2023-09-19T07:33:54;19.50;99.90
43641;DHT22;72791;52.546;13.570;2023-09-19T07:36:19;19.70;99.90
43641;DHT22;72791;52.546;13.570;2023-09-19T07:38:45;19.70;99.90
43641;DHT22;72791;52.546;13.570;2023-09-19T07:41:11;19.80;99.90
43641;DHT22;72791;52.546;13.570;2023-09-19T07:43:38;19.80;99.90
43641;DHT22;72791;52.546;13.570;2023-09-19T07:46:26;19.50;99.90
43641;DHT22;72791;52.546;13.570;2023-09-19T07:48:52;19.30;99.90
43641;DHT22;72791;52.546;13.570;2023-09-19T07:51:17;19.10;99.90
43641;DHT22;72791;52.546;13.570;2023-09-19T07:53:43;18.90;99.90
43641;DHT22;72791;52.546;13.570;2023-09-19T07:56:10;18.90;99.90
43641;DHT22;72791;52.546;13.570;2023-09-19T07:58:38;19.00;99.90
43641;DHT22;72791;52.546;13.570;2023-09-19T08:01:08;18.90;99.90
43641;DHT22;72791;52.546;13.570;2023-09-19T08:03:37;18.90;99.90
43641;DHT22;72791;52.546;13.570;2023-09-19T08:06:09;19.00;99.90
43641;DHT22;72791;52.546;13.570;2023-09-19T08:08:35;19.10;99.90
43641;DHT22;72791;52.546;13.570;2023-09-19T08:11:06;19.10;99.90
43641;DHT22;72791;52.546;13.570;2023-09-19T08:13:41;19.00;99.90
43641;DHT22;72791;52.546;13.570;2023-09-19T08:16:11;19.10;99.90
43641;DHT22;72791;52.546;13.570;2023-09-19T08:18:37;19.10;99.90
43641;DHT22;72791;52.546;13.570;2023-09-19T08:21:06;19.00;99.90
43641;DHT22;72791;52.546;13.570;2023-09-19T08:23:37;19.00;99.90
43641;DHT22;72791;52.546;13.570;2023-09-19T08:26:04;19.10;99.90
43641;DHT22;72791;52.546;13.570;2023-09-19T08:28:34;19.20;99.90
43641;DHT22;72791;52.546;13.570;2023-09-19T08:31:19;19.10;99.90
43641;DHT22;72791;52.546;13.570;2023-09-19T08:33:46;19.00;99.90
43641;DHT22;72791;52.546;13.570;2023-09-19T08:36:14;19.00;99.90
43641;DHT22;72791;52.546;13.570;2023-09-19T08:38:40;19.00;99.90
43641;DHT22;72791;52.546;13.570;2023-09-19T08:41:07;19.00;99.90
43641;DHT22;72791;52.546;13.570;2023-09-19T08:43:34;18.80;99.90
43641;DHT22;72791;52.546;13.570;2023-09-19T08:46:09;18.80;99.90
43641;DHT22;72791;52.546;13.570;2023-09-19T08:48:39;18.80;99.90
43641;DHT22;72791;52.546;13.570;2023-09-19T08:51:25;18.80;99.90
43641;DHT22;72791;52.546;13.570;2023-09-19T08:53:58;18.70;99.90
43641;DHT22;72791;52.546;13.570;2023-09-19T08:56:29;18.60;99.90
43641;DHT22;72791;52.546;13.570;2023-09-19T08:59:00;18.70;99.90
43641;DHT22;72791;52.546;13.570;2023-09-19T09:01:28;19.00;99.90
43641;DHT22;72791;52.546;13.570;2023-09-19T09:03:55;19.30;99.90
43641;DHT22;72791;52.546;13.570;2023-09-19T09:06:22;19.30;99.90
43641;DHT22;72791;52.546;13.570;2023-09-19T09:08:50;19.30;99.90
43641;DHT22;72791;52.546;13.570;2023-09-19T09:11:17;19.00;99.90
43641;DHT22;72791;52.546;13.570;2023-09-19T09:13:46;18.80;99.90
43641;DHT22;72791;52.546;13.570;2023-09-19T09:16:13;18.70;99.90
43641;DHT22;72791;52.546;13.570;2023-09-19T09:18:39;18.70;99.90
43641;DHT22;72791;52.546;13.570;2023-09-19T09:21:06;18.70;99.90
43641;DHT22;72791;52.546;13.570;2023-09-19T09:23:32;18.70;99.90
43641;DHT22;72791;52.546;13.570;2023-09-19T09:25:59;18.70;99.90
43641;DHT22;72791;52.546;13.570;2023-09-19T09:28:56;18.70;99.90
43641;DHT22;72791;52.546;13.570;2023-09-19T09:31:25;18.60;99.90
43641;DHT22;72791;52.546;13.570;2023-09-19T09:33:55;18.70;99.90
43641;DHT22;72791;52.546;13.570;2023-09-19T09:36:38;18.90;99.90
43641;DHT22;72791;52.546;13.570;2023-09-19T09:39:05;19.00;99.90
43641;DHT22;72791;52.546;13.570;2023-09-19T09:41:44;19.10;99.90
43641;DHT22;72791;52.546;13.570;2023-09-19T09:44:16;19.00;99.90
43641;DHT22;72791;52.546;13.570;2023-09-19T09:46:47;19.00;99.90
43641;DHT22;72791;52.546;13.570;2023-09-19T09:49:26;19.10;99.90
43641;DHT22;72791;52.546;13.570;2023-09-19T09:52:04;19.40;99.90
43641;DHT22;72791;52.546;13.570;2023-09-19T09:55:01;19.50;99.90
43641;DHT22;72791;52.546;13.570;2023-09-19T09:57:32;19.60;99.90
43641;DHT22;72791;52.546;13.570;2023-09-19T10:00:00;19.70;99.90
43641;DHT22;72791;52.546;13.570;2023-09-19T10:02:42;19.60;99.90
43641;DHT22;72791;52.546;13.570;2023-09-19T10:05:19;19.50;99.90
43641;DHT22;72791;52.546;13.570;2023-09-19T10:07:51;19.40;99.90
43641;DHT22;72791;52.546;13.570;2023-09-19T10:10:40;19.40;99.90
43641;DHT22;72791;52.546;13.570;2023-09-19T10:13:07;19.40;99.90
43641;DHT22;72791;52.546;13.570;2023-09-19T10:15:34;19.60;99.90
43641;DHT22;72791;52.546;13.570;2023-09-19T10:18:04;19.60;99.90
43641;DHT22;72791;52.546;13.570;2023-09-19T10:20:31;19.70;99.90
43641;DHT22;72791;52.546;13.570;2023-09-19T10:23:08;19.80;99.90
43641;DHT22;72791;52.546;13.570;2023-09-19T10:25:43;19.90;99.90
43641;DHT22;72791;52.546;13.570;2023-09-19T10:28:13;20.20;99.90
43641;DHT22;72791;52.546;13.570;2023-09-19T10:30:42;20.20;99.90
43641;DHT22;72791;52.546;13.570;2023-09-19T10:33:17;20.20;99.90
43641;DHT22;72791;52.546;13.570;2023-09-19T10:35:47;20.00;99.90
43641;DHT22;72791;52.546;13.570;2023-09-19T10:38:14;19.90;99.90
43641;DHT22;72791;52.546;13.570;2023-09-19T10:40:42;19.90;99.90
43641;DHT22;72791;52.546;13.570;2023-09-19T10:43:15;20.10;99.90
43641;DHT22;72791;52.546;13.570;2023-09-19T10:45:44;20.30;99.90
43641;DHT22;72791;52.546;13.570;2023-09-19T10:48:10;20.30;99.90
43641;DHT22;72791;52.546;13.570;2023-09-19T10:53:48;20.40;99.90
43641;DHT22;72791;52.546;13.570;2023-09-19T10:56:20;20.40;99.90
43641;DHT22;72791;52.546;13.570;2023-09-19T10:58:48;20.60;99.90
43641;DHT22;72791;52.546;13.570;2023-09-19T11:01:14;20.50;99.90
43641;DHT22;72791;52.546;13.570;2023-09-19T11:03:41;20.60;99.90
43641;DHT22;72791;52.546;13.570;2023-09-19T11:06:19;20.70;99.90
43641;DHT22;72791;52.546;13.570;2023-09-19T11:08:58;20.60;99.90
43641;DHT22;72791;52.546;13.570;2023-09-19T11:11:48;20.50;99.90
43641;DHT22;72791;52.546;13.570;2023-09-19T11:30:51;20.80;99.90
43641;DHT22;72791;52.546;13.570;2023-09-19T11:33:28;20.80;99.90
43641;DHT22;72791;52.546;13.570;2023-09-19T11:36:15;20.90;99.90
43641;DHT22;72791;52.546;13.570;2023-09-19T11:46:56;21.60;99.90
43641;DHT22;72791;52.546;13.570;2023-09-19T11:49:29;21.50;99.90
43641;DHT22;72791;52.546;13.570;2023-09-19T11:51:58;21.60;99.90
43641;DHT22;72791;52.546;13.570;2023-09-19T11:54:30;21.60;99.90
43641;DHT22;72791;52.546;13.570;2023-09-19T11:57:00;21.50;99.90
43641;DHT22;72791;52.546;13.570;2023-09-19T11:59:30;21.70;99.90
43641;DHT22;72791;52.546;13.570;2023-09-19T12:01:57;21.80;99.90
43641;DHT22;72791;52.546;13.570;2023-09-19T12:04:44;21.80;99.90
43641;DHT22;72791;52.546;13.570;2023-09-19T12:07:15;21.80;99.90
43641;DHT22;72791;52.546;13.570;2023-09-19T12:09:46;21.90;99.90
43641;DHT22;72791;52.546;13.570;2023-09-19T12:12:26;21.60;99.90
43641;DHT22;72791;52.546;13.570;2023-09-19T12:15:01;21.70;99.90
43641;DHT22;72791;52.546;13.570;2023-09-19T12:20:02;21.40;99.90
43641;DHT22;72791;52.546;13.570;2023-09-19T12:22:41;21.50;99.90
43641;DHT22;72791;52.546;13.570;2023-09-19T12:25:11;21.60;99.90
43641;DHT22;72791;52.546;13.570;2023-09-19T12:27:44;21.70;99.90
43641;DHT22;72791;52.546;13.570;2023-09-19T12:30:13;21.70;99.90
43641;DHT22;72791;52.546;13.570;2023-09-19T12:32:48;21.80;99.90
43641;DHT22;72791;52.546;13.570;2023-09-19T12:35:31;21.80;99.90
43641;DHT22;72791;52.546;13.570;2023-09-19T12:38:01;21.90;99.90
43641;DHT22;72791;52.546;13.570;2023-09-19T12:40:30;21.90;99.90
43641;DHT22;72791;52.546;13.570;2023-09-19T12:42:59;21.80;99.90
43641;DHT22;72791;52.546;13.570;2023-09-19T12:45:30;21.60;99.90
43641;DHT22;72791;52.546;13.570;2023-09-19T12:53:57;21.70;99.90
43641;DHT22;72791;52.546;13.570;2023-09-19T12:56:22;21.80;99.90
43641;DHT22;72791;52.546;13.570;2023-09-19T12:58:54;22.00;99.90
43641;DHT22;72791;52.546;13.570;2023-09-19T13:01:20;21.90;99.90
43641;DHT22;72791;52.546;13.570;2023-09-19T13:04:13;21.90;99.90
43641;DHT22;72791;52.546;13.570;2023-09-19T13:06:50;21.80;99.90
43641;DHT22;72791;52.546;13.570;2023-09-19T13:09:22;21.90;99.90
43641;DHT22;72791;52.546;13.570;2023-09-19T13:11:48;21.90;99.90
43641;DHT22;72791;52.546;13.570;2023-09-19T13:14:22;21.90;99.90
43641;DHT22;72791;52.546;13.570;2023-09-19T13:17:05;22.10;99.90
43641;DHT22;72791;52.546;13.570;2023-09-19T13:19:52;22.10;99.90
43641;DHT22;72791;52.546;13.570;2023-09-19T13:22:42;21.80;99.90
43641;DHT22;72791;52.546;13.570;2023-09-19T13:25:15;21.70;99.90
43641;DHT22;72791;52.546;13.570;2023-09-19T13:27:49;21.60;99.90
43641;DHT22;72791;52.546;13.570;2023-09-19T13:30:18;21.50;99.90
43641;DHT22;72791;52.546;13.570;2023-09-19T13:32:44;21.40;99.90
43641;DHT22;72791;52.546;13.570;2023-09-19T13:35:15;21.30;99.90
43641;DHT22;72791;52.546;13.570;2023-09-19T13:37:41;21.40;99.90
43641;DHT22;72791;52.546;13.570;2023-09-19T13:40:14;21.40;99.90
43641;DHT22;72791;52.546;13.570;2023-09-19T13:42:41;21.50;99.90
43641;DHT22;72791;52.546;13.570;2023-09-19T13:45:07;21.60;99.90
43641;DHT22;72791;52.546;13.570;2023-09-19T13:47:37;21.50;99.90
43641;DHT22;72791;52.546;13.570;2023-09-19T13:50:04;21.40;99.90
43641;DHT22;72791;52.546;13.570;2023-09-19T13:52:31;21.20;99.90
43641;DHT22;72791;52.546;13.570;2023-09-19T13:54:57;21.00;99.90
43641;DHT22;72791;52.546;13.570;2023-09-19T13:57:26;20.90;99.90
43641;DHT22;72791;52.546;13.570;2023-09-19T13:59:53;20.90;99.90
43641;DHT22;72791;52.546;13.570;2023-09-19T14:02:21;21.00;99.90
43641;DHT22;72791;52.546;13.570;2023-09-19T14:04:51;21.20;99.90
43641;DHT22;72791;52.546;13.570;2023-09-19T14:07:17;21.40;99.90
43641;DHT22;72791;52.546;13.570;2023-09-19T14:09:46;21.50;99.90
43641;DHT22;72791;52.546;13.570;2023-09-19T14:12:13;21.50;99.90
43641;DHT22;72791;52.546;13.570;2023-09-19T14:14:40;21.50;99.90
43641;DHT22;72791;52.546;13.570;2023-09-19T14:17:06;21.40;99.90
43641;DHT22;72791;52.546;13.570;2023-09-19T14:19:33;21.60;99.90
43641;DHT22;72791;52.546;13.570;2023-09-19T14:22:02;21.60;99.90
43641;DHT22;72791;52.546;13.570;2023-09-19T14:24:33;21.60;99.90
43641;DHT22;72791;52.546;13.570;2023-09-19T14:26:59;21.40;99.90
43641;DHT22;72791;52.546;13.570;2023-09-19T14:29:25;21.40;99.90
43641;DHT22;72791;52.546;13.570;2023-09-19T14:31:51;21.40;99.90
43641;DHT22;72791;52.546;13.570;2023-09-19T14:34:17;21.40;99.90
43641;DHT22;72791;52.546;13.570;2023-09-19T14:36:43;21.40;99.90
43641;DHT22;72791;52.546;13.570;2023-09-19T14:39:10;21.40;99.90
43641;DHT22;72791;52.546;13.570;2023-09-19T14:41:36;21.30;99.90
43641;DHT22;72791;52.546;13.570;2023-09-19T14:44:03;21.20;99.90
43641;DHT22;72791;52.546;13.570;2023-09-19T14:46:29;21.20;99.90
43641;DHT22;72791;52.546;13.570;2023-09-19T14:48:56;21.10;99.90
43641;DHT22;72791;52.546;13.570;2023-09-19T14:51:30;21.10;99.90
43641;DHT22;72791;52.546;13.570;2023-09-19T14:53:56;21.10;99.90
43641;DHT22;72791;52.546;13.570;2023-09-19T14:56:23;21.20;99.90
43641;DHT22;72791;52.546;13.570;2023-09-19T14:58:51;21.40;99.90
43641;DHT22;72791;52.546;13.570;2023-09-19T15:01:17;21.50;99.90
43641;DHT22;72791;52.546;13.570;2023-09-19T15:03:43;21.60;99.90
43641;DHT22;72791;52.546;13.570;2023-09-19T15:06:11;21.60;99.90
43641;DHT22;72791;52.546;13.570;2023-09-19T15:08:41;21.60;99.90
43641;DHT22;72791;52.546;13.570;2023-09-19T15:11:12;21.60;99.90
43641;DHT22;72791;52.546;13.570;2023-09-19T15:13:38;21.70;99.90
43641;DHT22;72791;52.546;13.570;2023-09-19T15:16:07;21.80;99.90
43641;DHT22;72791;52.546;13.570;2023-09-19T15:18:36;21.80;99.90
43641;DHT22;72791;52.546;13.570;2023-09-19T15:21:13;21.60;99.90
43641;DHT22;72791;52.546;13.570;2023-09-19T15:23:41;21.50;99.90
43641;DHT22;72791;52.546;13.570;2023-09-19T15:26:09;21.40;99.90
43641;DHT22;72791;52.546;13.570;2023-09-19T15:28:37;21.40;99.90
43641;DHT22;72791;52.546;13.570;2023-09-19T15:31:09;21.40;99.90
43641;DHT22;72791;52.546;13.570;2023-09-19T15:33:37;21.40;99.90
43641;DHT22;72791;52.546;13.570;2023-09-19T15:36:08;21.40;99.90
43641;DHT22;72791;52.546;13.570;2023-09-19T15:39:05;21.30;99.90
43641;DHT22;72791;52.546;13.570;2023-09-19T15:41:34;21.10;99.90
43641;DHT22;72791;52.546;13.570;2023-09-19T15:44:01;21.20;99.90
43641;DHT22;72791;52.546;13.570;2023-09-19T15:46:32;21.40;99.90
43641;DHT22;72791;52.546;13.570;2023-09-19T15:49:03;21.40;99.90
43641;DHT22;72791;52.546;13.570;2023-09-19T15:51:29;21.50;99.90
43641;DHT22;72791;52.546;13.570;2023-09-19T15:53:55;21.30;99.90
43641;DHT22;72791;52.546;13.570;2023-09-19T15:56:22;21.30;99.90
43641;DHT22;72791;52.546;13.570;2023-09-19T15:58:50;21.40;99.90
43641;DHT22;72791;52.546;13.570;2023-09-19T16:01:18;21.60;99.90
43641;DHT22;72791;52.546;13.570;2023-09-19T16:03:54;21.90;99.90
43641;DHT22;72791;52.546;13.570;2023-09-19T16:06:26;22.30;99.70
43641;DHT22;72791;52.546;13.570;2023-09-19T16:08:58;22.60;99.20
43641;DHT22;72791;52.546;13.570;2023-09-19T16:11:25;22.70;99.10
43641;DHT22;72791;52.546;13.570;2023-09-19T16:13:51;22.80;98.80
43641;DHT22;72791;52.546;13.570;2023-09-19T16:16:19;22.90;99.10
43641;DHT22;72791;52.546;13.570;2023-09-19T16:18:56;23.00;98.80